Latest Weather Observations for The Monument

IDQ60801

Issued at 10:05 am EST Monday 22 September 2014 (issued every 30 minutes, with the page automatically refreshed every 10 minutes)

About weather observations | Map of weather stations | Latest weather observations for QLD | Other Formats
Station Details ID: 037034 Name: THE MONUMENT AIRPORT Lat: -21.81 Lon: 139.93 Height: 288.4 m
Data from the previous 72 hours. | See also: Recent months at The Monument
Date/Time
EST
Temp
°C
App
Temp
°C
Dew
Point
Rel
Hum
%
Delta-T
°C
Wind Press
QNH
hPa
Press
MSL
hPa
Rain
since 9 am
mm
Dir
 
Spd
km/h
Gust
km/h
Spd
kts
Gust
kts
22/10:00am 21.7 18.2 10.2 48 6.3 ESE 19 28 10 15 1019.0 1017.8 0.0
22/09:30am 20.9 16.2 9.2 47 6.3 SE 24 33 13 18 1019.2 1018.0 0.0
22/09:00am 19.2 14.8 7.6 47 6.0 E 20 24 11 13 1019.0 1017.8 0.0
22/08:30am 17.6 12.9 3.1 38 6.8 SE 17 20 9 11 1018.8 1017.6 0.0
22/08:00am 16.3 11.5 0.4 34 6.9 SSE 15 20 8 11 1018.6 1017.3 0.0
22/07:30am 14.6 9.3 -3.2 29 7.1 S 15 19 8 10 1018.4 1017.1 0.0
22/07:00am 13.0 8.8 -3.7 31 6.5 S 9 11 5 6 1018.1 1016.8 0.0
22/06:30am 12.2 7.4 -6.2 27 6.7 S 11 15 6 8 1017.8 1016.5 0.0
22/06:00am 12.4 8.1 -5.1 29 6.5 S 9 13 5 7 1017.6 1016.3 0.0
22/05:30am 12.2 7.3 -6.7 26 6.8 SSW 11 13 6 7 1017.2 1015.9 0.0
22/05:00am 11.2 8.1 -6.6 28 6.3 SW 2 9 1 5 1016.8 1015.5 0.0
22/04:30am 12.8 8.3 -7.2 24 7.1 SSW 9 11 5 6 1016.6 1015.4 0.0
22/04:00am 13.2 8.8 -5.9 26 7.1 SSW 9 11 5 6 1016.6 1015.4 0.0
22/03:30am 13.1 8.7 -5.4 27 6.9 S 9 11 5 6 1016.8 1015.5 0.0
22/03:00am 14.0 9.6 -6.2 24 7.5 SSW 9 13 5 7 1017.2 1015.9 0.0
22/02:30am 14.4 10.1 -4.8 26 7.4 SSW 9 11 5 6 1017.5 1016.2 0.0
22/02:00am 14.7 10.0 -4.6 26 7.5 SSW 11 13 6 7 1018.0 1016.7 0.0
22/01:30am 14.6 10.4 -4.2 27 7.3 SSW 9 11 5 6 1018.3 1017.0 0.0
22/01:00am 15.1 11.2 -4.2 26 7.6 SSW 7 9 4 5 1018.6 1017.3 0.0
22/12:30am 14.3 10.6 -4.4 27 7.2 SSW 6 7 3 4 1018.8 1017.6 0.0
22/12:00am 14.1 10.3 -5.1 26 7.3 SSW 6 7 3 4 1019.1 1017.9 0.0
 
Date/Time
EST
Temp
°C
App
Temp
°C
Dew
Point
Rel
Hum
%
Delta-T
°C
Wind Press
QNH
hPa
Press
MSL
hPa
Rain
since 9 am
mm
Dir
 
Spd
km/h
Gust
km/h
Spd
kts
Gust
kts
21/11:30pm 15.7 11.9 -3.7 26 7.7 SSW 7 9 4 5 1019.1 1017.9 0.0
21/11:00pm 16.9 12.4 -3.2 25 8.2 SSW 11 13 6 7 1019.2 1018.0 0.0
21/10:30pm 17.2 13.1 -3.0 25 8.3 SSW 9 13 5 7 1019.3 1018.1 0.0
21/10:00pm 15.6 12.7 -4.3 25 7.8 SW 2 9 1 5 1019.5 1018.3 0.0
21/09:30pm 16.5 14.1 -3.0 26 8.0 CALM 0 0 0 0 1019.5 1018.3 0.0
21/09:00pm 18.4 14.2 -3.7 22 9.0 SSW 9 9 5 5 1019.3 1018.1 0.0
21/08:30pm 19.6 15.9 -3.3 21 9.6 SSW 7 9 4 5 1019.1 1017.9 0.0
21/08:00pm 20.9 16.4 -3.6 19 10.3 S 11 13 6 7 1018.9 1017.7 0.0
21/07:30pm 22.3 17.1 -3.1 18 10.9 S 15 20 8 11 1018.7 1017.4 0.0
21/07:00pm 23.1 17.5 -3.3 17 11.4 S 17 26 9 14 1018.4 1017.1 0.0
21/06:30pm 23.7 17.1 -3.6 16 11.8 S 22 32 12 17 1018.0 1016.7 0.0
21/06:00pm 24.8 18.1 -4.5 14 12.5 SSW 22 35 12 19 1017.6 1016.3 0.0
21/05:30pm 25.2 17.7 -4.2 14 12.7 S 26 35 14 19 1017.3 1016.0 0.0
21/05:00pm 26.1 19.1 -3.5 14 13.0 S 24 37 13 20 1017.1 1015.8 0.0
21/04:30pm 26.5 20.3 -3.1 14 13.2 SSW 20 33 11 18 1017.1 1015.8 0.0
21/04:00pm 26.8 19.9 -2.9 14 13.3 S 24 35 13 19 1017.0 1015.7 0.0
21/03:30pm 26.4 19.8 -3.2 14 13.2 SSW 22 33 12 18 1017.2 1015.9 0.0
21/03:00pm 26.7 19.8 -3.0 14 13.3 SSW 24 39 13 21 1017.2 1015.9 0.0
21/02:30pm 26.4 19.4 -3.2 14 13.2 SSW 24 37 13 20 1017.5 1016.2 0.0
21/02:00pm 26.2 19.2 -3.4 14 13.1 SSW 24 35 13 19 1018.0 1016.7 0.0
21/01:30pm 26.4 19.8 -3.2 14 13.2 SSW 22 33 12 18 1018.4 1017.1 0.0
21/01:00pm 25.8 19.8 -2.8 15 12.7 S 19 26 10 14 1018.9 1017.7 0.0
21/12:30pm 25.3 18.9 -1.5 17 12.2 S 22 33 12 18 1019.5 1018.3 0.0
21/12:00pm 25.3 18.9 -1.5 17 12.2 S 22 33 12 18 1020.0 1018.8 0.0
21/11:30am 23.7 17.1 -0.6 20 11.1 S 24 33 13 18 1020.9 1019.6 0.0
21/11:00am 22.5 16.7 -0.3 22 10.3 SSW 20 28 11 15 1021.3 1020.0 0.0
21/10:30am 22.1 15.6 0.0 23 10.1 S 24 35 13 19 1021.6 1020.3 0.0
21/10:00am 20.9 14.4 0.2 25 9.4 S 24 33 13 18 1021.9 1020.7 0.0
21/09:30am 19.9 13.3 -0.1 26 8.9 S 24 32 13 17 1022.1 1020.9 0.0
21/09:00am 19.1 13.4 0.7 29 8.3 S 20 30 11 16 1022.1 1020.9 0.0
21/08:30am 17.6 12.0 1.2 33 7.4 S 20 28 11 15 1022.0 1020.8 0.0
21/08:00am 16.6 11.2 2.2 38 6.5 S 20 30 11 16 1021.6 1020.3 0.0
21/07:30am 16.1 12.1 5.1 48 5.3 S 15 22 8 12 1021.3 1020.0 0.0
21/07:00am 15.8 11.9 5.4 50 5.0 SSW 15 22 8 12 1021.1 1019.8 0.0
21/06:30am 15.8 11.9 5.4 50 5.0 S 15 20 8 11 1020.8 1019.5 0.0
21/06:00am 16.1 11.8 5.1 48 5.3 S 17 24 9 13 1020.7 1019.4 0.0
21/05:30am 16.5 12.3 3.9 43 5.9 S 15 20 8 11 1020.0 1018.8 0.0
21/05:00am 17.0 12.7 3.0 39 6.5 S 15 24 8 13 1019.7 1018.5 0.0
21/04:30am 17.4 13.9 3.3 39 6.6 S 11 15 6 8 1019.3 1018.1 0.0
21/04:00am 18.1 13.9 3.9 39 6.8 S 15 20 8 11 1019.2 1018.0 0.0
21/03:30am 18.6 14.4 3.6 37 7.2 S 15 20 8 11 1018.9 1017.7 0.0
21/03:00am 18.9 14.8 2.3 33 7.7 S 13 15 7 8 1018.8 1017.6 0.0
21/02:30am 18.8 15.0 1.8 32 7.8 S 11 13 6 7 1019.0 1017.8 0.0
21/02:00am 19.1 15.3 2.0 32 7.9 SSE 11 15 6 8 1019.0 1017.8 0.0
21/01:30am 19.3 15.1 1.8 31 8.1 S 13 20 7 11 1019.5 1018.3 0.0
21/01:00am 19.5 15.3 1.5 30 8.3 SSE 13 19 7 10 1019.2 1018.0 0.0
21/12:30am 19.4 14.7 0.9 29 8.4 SSE 15 19 8 10 1019.2 1018.0 0.0
21/12:00am 19.6 14.9 0.6 28 8.6 SE 15 20 8 11 1019.5 1018.3 0.0
 
Date/Time
EST
Temp
°C
App
Temp
°C
Dew
Point
Rel
Hum
%
Delta-T
°C
Wind Press
QNH
hPa
Press
MSL
hPa
Rain
since 9 am
mm
Dir
 
Spd
km/h
Gust
km/h
Spd
kts
Gust
kts
20/11:30pm 20.0 14.5 0.5 27 8.8 SE 19 22 10 12 1019.5 1018.3 0.0
20/11:00pm 20.2 14.5 -0.4 25 9.2 SE 19 28 10 15 1019.4 1018.2 0.0
20/10:30pm 20.5 13.9 -0.7 24 9.4 SE 24 35 13 19 1019.6 1018.4 0.0
20/10:00pm 20.6 13.3 -0.1 25 9.3 SE 28 39 15 21 1019.7 1018.5 0.0
20/09:30pm 20.6 13.2 -0.7 24 9.5 SSE 28 44 15 24 1019.5 1018.3 0.0
20/09:00pm 20.7 12.3 -1.2 23 9.6 SSE 33 46 18 25 1019.3 1018.1 0.0
20/08:30pm 21.4 12.6 -3.9 18 10.6 SSE 33 52 18 28 1019.0 1017.8 0.0
20/08:16pm 21.7 12.1 -1.6 21 10.3 SSE 39 57 21 31 1018.7 1017.4 0.0
20/08:00pm 21.7 12.6 -0.9 22 10.1 SSE 37 54 20 29 1018.5 1017.2 0.0
20/07:30pm 22.4 12.1 -1.0 21 10.5 S 43 61 23 33 1018.0 1016.7 0.0
20/07:20pm 23.2 14.7 -1.7 19 11.1 S 33 57 18 31 1017.8 1016.5 0.0
20/07:00pm 25.9 17.9 -2.7 15 12.8 SSE 30 43 16 23 1017.1 1015.8 0.0
20/06:30pm 26.7 18.2 -3.0 14 13.3 SSE 32 44 17 24 1016.5 1015.3 0.0
20/06:00pm 27.7 19.1 -2.2 14 13.7 S 33 43 18 23 1016.0 1014.8 0.0
20/05:30pm 28.5 20.2 -1.6 14 14.0 SSE 32 43 17 23 1015.4 1014.1 0.0
20/05:18pm 29.1 21.6 -1.1 14 14.2 SSE 28 46 15 25 1015.2 1013.9 0.0
20/05:00pm 29.5 21.9 -1.8 13 14.6 SSE 28 43 15 23 1015.0 1013.7 0.0
20/04:30pm 29.9 22.8 -1.5 13 14.8 SSE 26 37 14 20 1014.9 1013.6 0.0
20/04:00pm 30.0 22.9 -1.4 13 14.8 SSE 26 39 14 21 1014.7 1013.4 0.0
20/03:30pm 31.0 25.1 -0.6 13 15.2 SSE 20 32 11 17 1014.8 1013.5 0.0
20/03:00pm 32.0 27.4 -0.9 12 15.9 SW 13 20 7 11 1015.1 1013.8 0.0
20/02:30pm 31.3 27.4 -1.5 12 15.6 SSW 9 26 5 14 1015.2 1013.9 0.0
20/02:00pm 31.5 27.6 -1.3 12 15.7 SSE 9 15 5 8 1015.7 1014.4 0.0
20/01:30pm 30.4 26.2 -1.1 13 15.0 S 11 19 6 10 1016.3 1015.1 0.0
20/01:00pm 30.3 25.7 -1.2 13 14.9 SE 13 19 7 10 1016.5 1015.3 0.0
20/12:30pm 30.0 25.2 -2.5 12 15.1 NE 13 22 7 12 1017.0 1015.7 0.0
20/12:00pm 31.1 25.4 -0.5 13 15.3 NNE 19 28 10 15 1017.0 1015.7 0.0
20/11:30am 29.9 23.9 -1.5 13 14.8 NNE 20 32 11 17 1017.3 1016.0 0.0
20/11:00am 29.7 23.7 -1.6 13 14.7 NNE 20 28 11 15 1017.5 1016.2 0.0
20/10:30am 28.7 23.3 -1.4 14 14.1 NNE 17 24 9 13 1017.9 1016.6 0.0
20/10:00am 27.8 21.7 -2.1 14 13.7 ENE 20 33 11 18 1018.3 1017.0 0.0
20/09:30am 25.1 18.9 -3.3 15 12.5 NE 20 30 11 16 1018.6 1017.3 0.0
20/09:00am 23.8 18.4 -1.2 19 11.3 ENE 17 20 9 11 1018.9 1017.7 0.0
20/08:30am 21.6 16.9 -1.6 21 10.2 ENE 13 19 7 10 1019.0 1017.8 0.0
20/08:00am 20.3 15.9 -2.7 21 9.8 E 11 15 6 8 1019.0 1017.8 0.0
20/07:30am 18.7 14.8 -1.7 25 8.7 E 9 11 5 6 1018.7 1017.4 0.0
20/07:00am 16.4 12.4 -2.1 28 7.7 E 9 11 5 6 1018.4 1017.1 0.0
20/06:30am 15.4 11.3 -3.0 28 7.4 NE 9 13 5 7 1017.9 1016.6 0.0
20/06:00am 16.1 12.0 -2.9 27 7.7 ENE 9 13 5 7 1017.9 1016.6 0.0
20/05:30am 16.6 12.9 -2.5 27 7.9 E 7 9 4 5 1017.7 1016.4 0.0
20/05:00am 17.3 12.9 -2.4 26 8.2 E 11 15 6 8 1017.4 1016.1 0.0
20/04:30am 17.0 13.0 -2.6 26 8.1 E 9 11 5 6 1017.3 1016.0 0.0
20/04:00am 17.3 13.7 -2.4 26 8.2 NE 7 13 4 7 1017.1 1015.8 0.0
20/03:30am 17.4 13.3 -2.8 25 8.4 ENE 9 13 5 7 1017.0 1015.7 0.0
20/03:00am 18.3 14.6 -2.6 24 8.7 E 7 13 4 7 1017.4 1016.1 0.0
20/02:30am 18.3 14.3 -2.6 24 8.8 ESE 9 11 5 6 1017.7 1016.4 0.0
20/02:00am 18.2 14.6 -2.1 25 8.6 E 7 9 4 5 1017.9 1016.6 0.0
20/01:30am 18.5 14.9 -2.4 24 8.8 SE 7 9 4 5 1018.2 1016.9 0.0
20/01:00am 19.0 14.6 -2.6 23 9.1 SE 11 15 6 8 1018.5 1017.2 0.0
20/12:30am 19.5 15.4 -2.8 22 9.4 SSE 9 11 5 6 1018.8 1017.6 0.0
20/12:00am 20.3 15.6 -2.1 22 9.6 SE 13 15 7 8 1019.0 1017.8 0.0
 
Date/Time
EST
Temp
°C
App
Temp
°C
Dew
Point
Rel
Hum
%
Delta-T
°C
Wind Press
QNH
hPa
Press
MSL
hPa
Rain
since 9 am
mm
Dir
 
Spd
km/h
Gust
km/h
Spd
kts
Gust
kts
19/11:30pm 20.6 16.6 -2.5 21 9.9 SE 9 13 5 7 1019.1 1017.9 0.0
19/11:00pm 21.3 16.6 -1.9 21 10.1 SE 13 15 7 8 1019.1 1017.9 0.0
19/10:30pm 21.3 17.3 -2.5 20 10.3 SE 9 11 5 6 1019.1 1017.9 0.0
19/10:00pm 21.4 17.0 -2.5 20 10.3 SE 11 11 6 6 1019.1 1017.9 0.0
19/09:30pm 21.3 18.2 -2.5 20 10.3 ESE 4 9 2 5 1019.0 1017.8 0.0
19/09:00pm 22.7 18.7 -2.1 19 10.9 SSE 9 11 5 6 1018.9 1017.7 0.0
19/08:30pm 23.6 19.2 -2.8 17 11.6 SE 11 11 6 6 1018.6 1017.3 0.0
19/08:00pm 24.6 19.8 -2.9 16 12.1 SSE 13 13 7 7 1018.2 1016.9 0.0
19/07:30pm 26.4 21.8 -1.4 16 12.8 SSE 13 15 7 8 1017.6 1016.3 0.0
19/07:00pm 27.0 22.6 -2.7 14 13.4 SSE 11 15 6 8 1017.1 1015.8 0.0
19/06:30pm 28.8 23.3 -2.3 13 14.3 SSE 17 24 9 13 1016.6 1015.4 0.0
19/06:00pm 30.0 24.2 -1.4 13 14.8 SSE 19 24 10 13 1016.2 1015.0 0.0
19/05:30pm 30.7 25.4 -0.8 13 15.1 S 17 24 9 13 1015.9 1014.7 0.0
19/05:00pm 31.3 25.5 -0.4 13 15.4 S 20 28 11 15 1015.7 1014.4 0.0
19/04:30pm 32.1 26.8 -0.9 12 16.0 S 17 26 9 14 1015.5 1014.2 0.0
19/04:00pm 31.9 26.0 -1.0 12 15.8 SSE 20 32 11 17 1015.6 1014.3 0.0
19/03:30pm 31.7 27.1 -1.2 12 15.8 ESE 13 20 7 11 1015.7 1014.4 0.0
19/03:00pm 31.9 26.5 -1.0 12 15.8 ESE 17 32 9 17 1016.0 1014.8 0.0
19/02:30pm 32.0 26.7 -0.9 12 15.9 ESE 17 20 9 11 1016.5 1015.3 0.0
19/02:00pm 31.0 26.2 -2.9 11 15.7 SE 13 22 7 12 1017.0 1015.7 0.0
19/01:30pm 31.2 27.5 -2.7 11 15.8 SW 7 15 4 8 1017.8 1016.5 0.0
19/01:00pm 30.2 26.2 -2.3 12 15.1 ESE 9 22 5 12 1018.2 1016.9 0.0
19/12:30pm 29.6 25.2 -2.8 12 14.9 SSE 11 20 6 11 1018.8 1017.6 0.0
19/12:00pm 29.1 24.1 -4.3 11 14.9 ESE 13 20 7 11 1019.2 1018.0 0.0
19/11:30am 29.0 23.2 -4.4 11 14.9 ESE 17 24 9 13 1019.8 1018.6 0.0
19/11:00am 27.3 21.8 -5.7 11 14.1 ESE 15 24 8 13 1020.6 1019.3 0.0
19/10:30am 26.8 21.0 -4.9 12 13.7 E 17 30 9 16 1020.9 1019.6 0.0

Other Formats:

Comma delimited format used in spreadsheet applications
http://www.bom.gov.au/fwo/IDQ60801/IDQ60801.94336.axf

JavaScript Object Notation format (JSON) in row-major order
http://www.bom.gov.au/fwo/IDQ60801/IDQ60801.94336.json